Terminal Aerodrome Forecast
Issued by NWS Jacksonville, FL

Home | Current Version | Previous Version | Text Only | Print | Product List | Glossary On
Versions: 1 2 3 4 5 6 7 8 9 10 11 12 13 14 15
000
FTUS42 KJAX 151402 AAC
TAFJAX
TAF AMD
KJAX 151402Z 1514/1612 24004KT P6SM BKN030 BKN250
     FM151600 26008KT P6SM SCT030 BKN100
     FM160000 VRB03KT P6SM BKN250=

USA.gov is the U.S. government's official web portal to all federal, state and local government web resources and services.